Time;durP1;ratioP1;P1;durP2;ratioP2;P2;SDS_P1;SDS_P2;PMS_P1;PMS_P2;Temp;Humidity;BMP_temperature;BMP_pressure;BME280_temperature;BME280_humidity;BME280_pressure;Samples;Min_cycle;Max_cycle;Signal;HPM_P1;HPM_P2
2023/08/25 00:00:28;;;;;;;11.38;8.80;;;21.10;66.10;;;;;;5012809;28;20021;-53
2023/08/25 00:02:54;;;;;;;12.02;9.13;;;21.10;65.90;;;;;;5012451;28;20381;-52
2023/08/25 00:05:20;;;;;;;11.88;9.35;;;21.10;65.90;;;;;;5012464;28;20034;-53
2023/08/25 00:07:45;;;;;;;9.02;7.85;;;21.10;66.10;;;;;;5012594;28;20492;-52
2023/08/25 00:10:11;;;;;;;9.65;8.02;;;21.10;66.60;;;;;;5012733;28;20057;-51
2023/08/25 00:12:37;;;;;;;9.18;7.80;;;21.10;65.90;;;;;;5012329;28;20034;-51
2023/08/25 00:15:04;;;;;;;9.15;7.47;;;21.10;65.70;;;;;;5012465;28;20069;-51
2023/08/25 00:17:30;;;;;;;11.30;8.30;;;21.10;65.80;;;;;;5012778;28;20083;-53
2023/08/25 00:19:56;;;;;;;9.20;7.45;;;21.10;65.70;;;;;;5012539;28;20389;-53
2023/08/25 00:22:22;;;;;;;9.45;7.03;;;21.10;65.50;;;;;;5012169;28;20037;-52
2023/08/25 00:24:48;;;;;;;8.30;6.38;;;21.00;65.60;;;;;;5012335;28;20041;-53
2023/08/25 00:27:13;;;;;;;6.28;5.65;;;21.10;65.70;;;;;;5012541;28;20056;-53
2023/08/25 00:29:39;;;;;;;8.85;6.10;;;21.00;65.40;;;;;;5013368;28;20056;-52
2023/08/25 00:32:05;;;;;;;6.78;5.68;;;21.00;65.50;;;;;;5016333;28;20469;-52
2023/08/25 00:34:30;;;;;;;7.65;5.90;;;21.00;65.30;;;;;;5016421;28;20470;-52
2023/08/25 00:36:56;;;;;;;6.75;5.72;;;21.00;65.20;;;;;;5016243;28;20056;-52
2023/08/25 00:39:22;;;;;;;6.18;5.38;;;21.00;65.10;;;;;;5016479;28;20018;-53
2023/08/25 00:41:48;;;;;;;6.28;5.15;;;21.00;65.10;;;;;;5016278;28;20029;-54
2023/08/25 00:44:14;;;;;;;6.38;5.45;;;20.90;65.00;;;;;;5016059;28;20429;-53
2023/08/25 00:46:40;;;;;;;5.55;4.80;;;20.90;65.10;;;;;;5016920;28;20022;-54
2023/08/25 00:49:06;;;;;;;6.07;5.00;;;20.90;65.00;;;;;;5016059;28;20441;-52
2023/08/25 00:51:32;;;;;;;6.50;5.13;;;20.90;65.00;;;;;;5016069;28;20045;-53
2023/08/25 00:53:57;;;;;;;5.90;5.30;;;20.90;65.20;;;;;;5015845;28;20469;-52
2023/08/25 00:56:24;;;;;;;7.75;4.88;;;20.90;65.50;;;;;;5015862;28;20362;-52
2023/08/25 00:58:50;;;;;;;6.95;5.32;;;20.90;65.50;;;;;;5015081;28;20401;-53
2023/08/25 01:01:17;;;;;;;6.25;5.20;;;20.80;66.10;;;;;;5015782;28;20060;-54
2023/08/25 01:03:45;;;;;;;6.60;5.00;;;20.80;65.50;;;;;;5015762;28;20053;-52
2023/08/25 01:06:10;;;;;;;5.63;4.80;;;20.80;65.50;;;;;;5015788;28;20101;-54
2023/08/25 01:08:38;;;;;;;6.00;4.80;;;20.80;65.50;;;;;;5016240;28;20108;-53
2023/08/25 01:11:31;;;;;;;6.70;5.50;;;20.80;65.40;;;;;;5015929;28;20561;-52
2023/08/25 01:14:34;;;;;;;7.25;5.32;;;20.80;65.30;;;;;;5015708;28;20370;-52
2023/08/25 01:17:36;;;;;;;6.38;5.40;;;20.80;65.50;;;;;;5015509;28;20109;-53
2023/08/25 01:20:07;;;;;;;6.75;5.45;;;20.80;65.90;;;;;;5013962;28;20049;-53
2023/08/25 01:22:50;;;;;;;5.40;4.90;;;20.80;66.10;;;;;;5015810;28;20018;-53
2023/08/25 01:25:27;;;;;;;7.50;4.72;;;20.80;66.30;;;;;;5015496;28;20061;-53
2023/08/25 01:27:55;;;;;;;6.57;4.75;;;20.80;66.20;;;;;;5015829;28;20084;-53
2023/08/25 01:30:24;;;;;;;7.07;5.15;;;20.80;66.10;;;;;;5015750;28;20502;-53
2023/08/25 01:32:51;;;;;;;6.25;5.10;;;20.80;66.00;;;;;;5015790;28;20536;-51
2023/08/25 01:35:19;;;;;;;9.18;6.15;;;20.80;66.00;;;;;;5015272;28;20048;-53
2023/08/25 01:38:02;;;;;;;7.82;6.10;;;20.80;65.80;;;;;;5015690;28;20052;-51
2023/08/25 01:40:33;;;;;;;8.27;6.82;;;20.90;65.60;;;;;;5015073;28;20018;-54
2023/08/25 01:43:00;;;;;;;7.22;6.05;;;20.80;65.40;;;;;;5015073;28;20026;-52
2023/08/25 01:45:26;;;;;;;7.43;6.03;;;20.80;65.50;;;;;;5014932;28;20128;-53
2023/08/25 01:47:54;;;;;;;7.22;5.90;;;20.80;65.70;;;;;;5014924;28;20569;-53
2023/08/25 01:50:21;;;;;;;7.80;5.63;;;20.80;65.60;;;;;;5015244;28;20088;-54
2023/08/25 01:52:47;;;;;;;8.25;5.85;;;20.80;65.50;;;;;;5015115;28;20065;-52
2023/08/25 01:55:13;;;;;;;6.57;5.88;;;20.80;65.40;;;;;;5014818;28;20034;-53
2023/08/25 01:57:38;;;;;;;8.45;5.30;;;20.80;65.30;;;;;;5014803;28;20033;-53
2023/08/25 02:00:05;;;;;;;7.57;5.60;;;20.80;65.40;;;;;;5014617;28;20022;-53
2023/08/25 02:02:30;;;;;;;9.60;5.72;;;20.70;65.30;;;;;;5014802;28;20387;-54
2023/08/25 02:04:56;;;;;;;7.75;5.75;;;20.70;65.30;;;;;;5014777;28;20026;-52
2023/08/25 02:07:23;;;;;;;7.10;5.78;;;20.70;65.30;;;;;;5014828;28;20030;-54
2023/08/25 02:09:48;;;;;;;6.93;5.53;;;20.70;65.30;;;;;;5014934;28;20041;-53
2023/08/25 02:12:14;;;;;;;7.32;6.10;;;20.70;65.30;;;;;;5014262;28;20026;-53
2023/08/25 02:14:40;;;;;;;7.47;6.03;;;20.70;65.50;;;;;;5014594;28;20038;-51
2023/08/25 02:17:05;;;;;;;8.20;6.03;;;20.70;65.60;;;;;;5014415;28;20154;-51
2023/08/25 02:19:31;;;;;;;11.05;6.38;;;20.60;65.70;;;;;;5014696;28;20025;-53
2023/08/25 02:21:57;;;;;;;6.72;6.03;;;20.60;65.90;;;;;;5014550;28;20026;-54
2023/08/25 02:24:22;;;;;;;7.72;6.15;;;20.60;65.90;;;;;;5014421;28;20030;-52
2023/08/25 02:26:49;;;;;;;9.13;6.28;;;20.50;65.90;;;;;;5014434;28;20050;-53
2023/08/25 02:29:14;;;;;;;8.25;6.03;;;20.50;66.10;;;;;;5014065;28;20076;-52
2023/08/25 02:31:40;;;;;;;8.18;6.38;;;20.40;66.30;;;;;;5014049;28;20030;-53
2023/08/25 02:34:06;;;;;;;8.15;6.30;;;20.40;66.30;;;;;;5014213;28;20044;-51
2023/08/25 02:36:31;;;;;;;7.22;6.25;;;20.30;66.60;;;;;;5014423;28;20141;-53
2023/08/25 02:38:57;;;;;;;8.40;6.38;;;20.30;67.00;;;;;;5013806;28;20022;-52
2023/08/25 02:41:22;;;;;;;8.27;6.50;;;20.30;66.90;;;;;;5012873;28;20485;-51
2023/08/25 02:43:48;;;;;;;7.57;6.35;;;20.20;67.10;;;;;;5013677;28;20477;-53
2023/08/25 02:46:14;;;;;;;6.68;5.90;;;20.20;67.10;;;;;;5013625;28;20018;-52
2023/08/25 02:48:39;;;;;;;7.78;6.20;;;20.20;67.30;;;;;;5013535;28;20018;-54
2023/08/25 02:51:05;;;;;;;7.50;6.25;;;20.20;67.30;;;;;;5013672;28;20040;-52
2023/08/25 02:53:30;;;;;;;9.02;6.45;;;20.20;67.30;;;;;;5011941;28;20578;-53
2023/08/25 02:55:56;;;;;;;10.25;6.65;;;20.10;67.30;;;;;;5014011;28;20030;-53
2023/08/25 02:58:22;;;;;;;9.07;6.45;;;20.10;67.40;;;;;;5014224;28;20040;-53
2023/08/25 03:00:47;;;;;;;9.30;6.45;;;20.20;67.70;;;;;;5012870;28;20025;-52
2023/08/25 03:03:13;;;;;;;9.43;6.80;;;20.10;67.60;;;;;;5013600;28;20379;-54
2023/08/25 03:05:39;;;;;;;8.00;6.30;;;20.10;67.70;;;;;;5013579;28;20030;-52
2023/08/25 03:08:08;;;;;;;7.70;6.20;;;20.20;67.70;;;;;;5013860;28;20022;-53
2023/08/25 03:10:34;;;;;;;9.73;6.43;;;20.20;67.90;;;;;;5013651;28;20366;-53
2023/08/25 03:12:59;;;;;;;7.78;6.38;;;20.10;67.80;;;;;;5013367;28;20037;-53
2023/08/25 03:15:25;;;;;;;9.50;6.93;;;20.20;67.90;;;;;;5013662;28;20030;-52
2023/08/25 03:17:51;;;;;;;9.63;6.85;;;20.20;68.10;;;;;;5013481;28;20044;-53
2023/08/25 03:20:16;;;;;;;8.52;6.45;;;20.20;68.20;;;;;;5013360;28;20038;-52
2023/08/25 03:22:43;;;;;;;9.52;6.70;;;20.20;68.20;;;;;;5013533;28;20056;-52
2023/08/25 03:25:08;;;;;;;8.32;6.80;;;20.20;68.30;;;;;;5013268;28;20385;-54
2023/08/25 03:27:36;;;;;;;8.70;5.90;;;20.30;68.30;;;;;;5013204;28;20034;-53
2023/08/25 03:30:02;;;;;;;11.52;6.80;;;20.30;68.40;;;;;;5014005;28;20056;-53
2023/08/25 03:32:28;;;;;;;9.93;6.95;;;20.30;68.50;;;;;;5013531;28;20060;-52
2023/08/25 03:34:54;;;;;;;9.93;6.47;;;20.30;68.50;;;;;;5013269;28;20477;-53
2023/08/25 03:37:19;;;;;;;9.07;6.45;;;20.40;68.70;;;;;;5013286;28;20022;-52
2023/08/25 03:39:45;;;;;;;11.00;7.18;;;20.40;68.40;;;;;;5013249;28;20026;-54
2023/08/25 03:42:11;;;;;;;8.55;6.38;;;20.40;68.80;;;;;;5013070;28;20026;-54
2023/08/25 03:44:38;;;;;;;9.55;6.68;;;20.50;68.70;;;;;;5013045;28;20088;-54
2023/08/25 03:47:04;;;;;;;9.60;6.90;;;20.50;68.50;;;;;;5013153;28;20029;-53
2023/08/25 03:49:30;;;;;;;11.50;7.53;;;20.50;68.50;;;;;;5013422;28;20032;-53
2023/08/25 03:51:58;;;;;;;11.02;7.05;;;20.50;68.00;;;;;;5013259;28;20025;-53
2023/08/25 03:54:24;;;;;;;10.43;6.30;;;20.60;67.90;;;;;;5013401;28;20030;-51
2023/08/25 03:56:49;;;;;;;11.85;7.13;;;20.60;67.80;;;;;;5013598;28;20096;-53
2023/08/25 03:59:15;;;;;;;11.68;7.60;;;20.60;67.60;;;;;;5013027;28;20118;-54
2023/08/25 04:01:40;;;;;;;9.23;6.85;;;20.70;67.40;;;;;;5012825;28;20358;-53
2023/08/25 04:04:06;;;;;;;8.63;7.28;;;20.70;67.30;;;;;;5011932;28;20026;-53
2023/08/25 04:06:32;;;;;;;10.38;6.72;;;20.80;67.40;;;;;;5013181;28;20030;-51
2023/08/25 04:08:58;;;;;;;13.07;7.70;;;20.80;67.10;;;;;;5013049;28;20049;-53
2023/08/25 04:11:24;;;;;;;11.57;7.05;;;20.90;66.80;;;;;;5013002;28;20108;-53
2023/08/25 04:13:49;;;;;;;7.68;6.55;;;20.90;66.60;;;;;;5013048;28;20068;-54
2023/08/25 04:16:15;;;;;;;11.82;6.82;;;20.90;66.20;;;;;;5013016;28;20030;-53
2023/08/25 04:18:41;;;;;;;8.35;7.05;;;21.00;66.30;;;;;;5012977;28;20489;-53
2023/08/25 04:21:06;;;;;;;9.95;6.82;;;21.10;66.10;;;;;;5012776;28;20091;-53
2023/08/25 04:23:32;;;;;;;12.65;7.45;;;21.10;65.90;;;;;;5012870;28;20490;-52
2023/08/25 04:25:57;;;;;;;8.82;6.57;;;21.20;65.80;;;;;;5012749;28;20057;-53
2023/08/25 04:28:25;;;;;;;7.93;6.78;;;21.30;65.80;;;;;;5013177;28;20026;-54
2023/08/25 04:30:54;;;;;;;9.45;7.53;;;21.30;65.70;;;;;;5012852;28;20483;-53
2023/08/25 04:33:20;;;;;;;11.05;7.65;;;21.30;65.40;;;;;;5013102;28;20030;-53
2023/08/25 04:35:46;;;;;;;11.52;7.38;;;21.40;65.20;;;;;;5012906;28;20049;-54
2023/08/25 04:38:12;;;;;;;8.80;7.50;;;21.40;65.30;;;;;;5012963;28;20448;-53
2023/08/25 04:40:37;;;;;;;9.30;7.28;;;21.40;65.20;;;;;;5011352;28;20109;-52
2023/08/25 04:43:05;;;;;;;8.82;6.28;;;21.50;65.30;;;;;;5011587;28;20026;-55
2023/08/25 04:45:31;;;;;;;8.23;6.60;;;21.50;65.20;;;;;;5011441;28;20571;-53
2023/08/25 04:47:56;;;;;;;10.57;7.32;;;21.60;65.00;;;;;;5011603;28;20141;-54
2023/08/25 04:50:22;;;;;;;8.35;6.32;;;21.70;65.10;;;;;;5011300;28;20041;-54
2023/08/25 04:52:48;;;;;;;11.02;6.63;;;21.80;65.20;;;;;;5010027;28;20026;-54
2023/08/25 04:55:13;;;;;;;7.20;5.82;;;21.80;64.90;;;;;;5009373;28;20390;-55
2023/08/25 04:57:41;;;;;;;8.98;6.60;;;21.90;64.70;;;;;;5008940;28;20022;-55
2023/08/25 05:00:08;;;;;;;8.80;6.40;;;21.90;64.70;;;;;;5008351;28;20477;-56
2023/08/25 05:02:34;;;;;;;9.48;6.40;;;22.00;64.90;;;;;;5007299;28;20049;-54
2023/08/25 05:05:02;;;;;;;7.72;6.18;;;22.00;65.10;;;;;;5007662;28;20030;-53
2023/08/25 05:07:27;;;;;;;9.27;6.43;;;22.00;65.40;;;;;;5008666;28;20125;-56
2023/08/25 05:09:53;;;;;;;8.18;6.47;;;22.10;65.70;;;;;;5007946;28;20489;-55
2023/08/25 05:12:20;;;;;;;6.80;5.95;;;22.10;65.80;;;;;;5008096;28;20040;-56
2023/08/25 05:14:45;;;;;;;8.35;6.32;;;22.20;66.00;;;;;;5009287;28;20442;-56
2023/08/25 05:17:11;;;;;;;8.70;6.50;;;22.20;66.30;;;;;;5011941;28;20474;-55
2023/08/25 05:19:37;;;;;;;7.45;5.70;;;22.40;66.50;;;;;;5012942;28;20057;-54
2023/08/25 05:22:02;;;;;;;7.35;5.60;;;22.50;66.50;;;;;;5012513;28;20507;-56
2023/08/25 05:24:28;;;;;;;9.38;6.30;;;22.60;66.70;;;;;;5012378;28;20029;-55
2023/08/25 05:26:54;;;;;;;7.38;5.80;;;22.70;66.90;;;;;;5011973;28;20045;-56
2023/08/25 05:29:21;;;;;;;8.82;5.55;;;22.90;66.90;;;;;;5013033;28;20030;-55
2023/08/25 05:31:47;;;;;;;6.70;5.55;;;23.00;66.50;;;;;;5013095;28;20030;-55
2023/08/25 05:34:14;;;;;;;6.65;5.40;;;23.10;66.60;;;;;;5013206;28;20041;-56
2023/08/25 05:36:40;;;;;;;6.95;6.22;;;23.10;66.40;;;;;;5013601;28;20022;-54
2023/08/25 05:39:06;;;;;;;7.65;5.65;;;23.10;66.40;;;;;;5012544;28;20026;-56
2023/08/25 05:41:32;;;;;;;7.60;6.00;;;23.20;66.60;;;;;;5010707;28;20439;-56
2023/08/25 05:43:58;;;;;;;7.78;5.82;;;23.20;66.60;;;;;;5012043;28;20018;-56
2023/08/25 05:46:24;;;;;;;9.75;6.15;;;23.20;66.40;;;;;;5012046;28;20033;-55
2023/08/25 05:48:50;;;;;;;7.93;5.60;;;23.20;66.60;;;;;;5011754;28;20109;-56
2023/08/25 05:51:16;;;;;;;7.90;5.97;;;23.20;66.70;;;;;;5012195;28;20164;-57
2023/08/25 05:53:41;;;;;;;9.18;5.93;;;23.20;66.60;;;;;;5013952;28;20088;-54
2023/08/25 05:56:07;;;;;;;9.25;5.60;;;23.30;66.70;;;;;;5013405;28;20055;-56
2023/08/25 05:58:32;;;;;;;5.90;5.28;;;23.30;66.80;;;;;;5013540;28;20482;-55
2023/08/25 06:00:58;;;;;;;7.85;5.45;;;23.40;66.70;;;;;;5012221;28;20018;-57
2023/08/25 06:03:25;;;;;;;7.60;5.13;;;23.50;66.70;;;;;;5013353;28;20030;-56
2023/08/25 06:05:53;;;;;;;8.70;5.28;;;23.60;66.70;;;;;;5013026;28;20026;-57
2023/08/25 06:08:22;;;;;;;8.48;5.75;;;23.60;66.80;;;;;;5013507;28;20083;-56
2023/08/25 06:10:49;;;;;;;9.30;5.70;;;23.70;66.90;;;;;;5013950;28;20029;-57
2023/08/25 06:13:15;;;;;;;8.57;6.13;;;23.80;66.90;;;;;;5013319;28;20371;-56
2023/08/25 06:15:40;;;;;;;6.82;5.38;;;23.90;66.90;;;;;;5013163;28;20025;-57
2023/08/25 06:18:06;;;;;;;7.68;5.57;;;24.00;66.70;;;;;;5007167;28;20026;-56
2023/08/25 06:20:32;;;;;;;6.25;5.20;;;24.00;66.50;;;;;;5007404;28;20030;-56
2023/08/25 06:22:58;;;;;;;9.75;6.35;;;24.10;66.70;;;;;;5008856;28;20105;-56
2023/08/25 06:25:24;;;;;;;6.70;5.53;;;24.20;66.70;;;;;;5012742;28;20158;-56
2023/08/25 06:27:50;;;;;;;6.85;5.47;;;24.20;66.40;;;;;;5008105;28;20359;-57
2023/08/25 06:30:16;;;;;;;8.32;5.78;;;24.30;66.10;;;;;;5007040;28;20034;-55
2023/08/25 06:32:43;;;;;;;7.00;5.63;;;24.30;66.00;;;;;;5009778;28;20041;-55
2023/08/25 06:35:11;;;;;;;7.95;6.00;;;24.40;66.10;;;;;;5010346;28;20025;-56
2023/08/25 06:37:37;;;;;;;7.35;5.25;;;24.50;66.20;;;;;;5011340;28;20052;-56
2023/08/25 06:40:10;;;;;;;8.60;6.00;;;24.50;66.20;;;;;;5010842;28;20073;-56
2023/08/25 06:42:40;;;;;;;8.35;5.88;;;24.50;65.90;;;;;;5008356;28;20322;-52
2023/08/25 06:45:07;;;;;;;7.63;5.35;;;24.50;65.90;;;;;;5004687;28;20038;-57
2023/08/25 06:47:34;;;;;;;8.55;5.90;;;24.60;66.10;;;;;;5009907;28;20034;-56
2023/08/25 06:50:00;;;;;;;7.78;5.63;;;24.60;66.00;;;;;;5008640;28;20387;-57
2023/08/25 06:52:26;;;;;;;6.65;5.30;;;24.60;66.10;;;;;;5004131;28;20661;-56
2023/08/25 06:54:51;;;;;;;6.43;5.30;;;24.70;66.30;;;;;;5001167;28;20026;-57
2023/08/25 06:57:17;;;;;;;6.65;5.38;;;24.70;65.90;;;;;;5001420;28;20033;-55
2023/08/25 06:59:43;;;;;;;6.57;5.68;;;24.70;65.60;;;;;;5000889;28;20042;-55
2023/08/25 07:02:09;;;;;;;6.78;5.38;;;24.70;65.70;;;;;;5000382;28;20034;-55
2023/08/25 07:04:35;;;;;;;9.40;5.68;;;24.80;65.50;;;;;;5001844;28;20041;-55
2023/08/25 07:07:01;;;;;;;5.72;4.82;;;24.80;65.30;;;;;;5000859;28;20038;-57
2023/08/25 07:09:28;;;;;;;6.22;4.53;;;24.80;65.50;;;;;;5002945;28;20025;-57
2023/08/25 07:11:53;;;;;;;6.68;5.63;;;24.80;65.60;;;;;;5001338;28;20061;-55
2023/08/25 07:14:19;;;;;;;6.28;4.97;;;24.90;65.60;;;;;;5000122;28;20184;-57
2023/08/25 07:16:45;;;;;;;6.47;5.38;;;25.00;65.40;;;;;;4995943;28;20041;-54
2023/08/25 07:19:10;;;;;;;6.05;4.78;;;25.00;65.20;;;;;;4998036;28;20034;-54
2023/08/25 07:21:37;;;;;;;5.80;4.80;;;25.00;65.20;;;;;;5001783;28;20048;-54
2023/08/25 07:24:03;;;;;;;5.70;4.50;;;25.00;64.90;;;;;;5000711;28;20036;-56
2023/08/25 07:26:29;;;;;;;5.40;4.28;;;25.00;64.50;;;;;;5004932;28;20042;-55
2023/08/25 07:28:54;;;;;;;5.43;4.28;;;25.10;64.10;;;;;;5000047;28;20457;-56
2023/08/25 07:31:20;;;;;;;6.82;4.50;;;25.10;63.20;;;;;;5006459;28;20048;-56
2023/08/25 07:33:46;;;;;;;5.97;4.60;;;25.20;63.20;;;;;;5006200;28;20381;-55
2023/08/25 07:36:11;;;;;;;5.35;4.25;;;25.20;63.40;;;;;;5005670;28;20037;-54
2023/08/25 07:38:38;;;;;;;7.88;4.57;;;25.20;63.50;;;;;;4994571;28;20054;-54
2023/08/25 07:41:04;;;;;;;6.32;4.28;;;25.30;63.50;;;;;;5006703;28;20497;-56
2023/08/25 07:43:29;;;;;;;6.28;3.72;;;25.30;63.00;;;;;;5015500;28;20024;-57
2023/08/25 07:45:55;;;;;;;5.18;3.97;;;25.30;61.90;;;;;;5006668;28;20057;-56
2023/08/25 07:48:22;;;;;;;7.18;4.55;;;25.40;61.50;;;;;;5006181;28;20405;-56
2023/08/25 07:50:48;;;;;;;7.20;5.05;;;25.40;61.70;;;;;;5009074;28;20029;-57
2023/08/25 07:53:14;;;;;;;6.47;4.30;;;25.40;61.90;;;;;;5008338;28;20030;-55
2023/08/25 07:55:40;;;;;;;6.40;4.00;;;25.40;62.00;;;;;;5007313;28;20378;-56
2023/08/25 07:58:07;;;;;;;6.50;4.65;;;25.50;62.00;;;;;;4999982;28;20030;-55
2023/08/25 08:00:33;;;;;;;5.50;4.30;;;25.50;61.80;;;;;;5005258;28;20381;-54
2023/08/25 08:02:59;;;;;;;5.97;4.57;;;25.50;61.90;;;;;;5002529;28;20034;-58
2023/08/25 08:05:26;;;;;;;5.10;4.25;;;25.50;62.00;;;;;;5010865;28;20034;-57
2023/08/25 08:07:52;;;;;;;7.32;4.57;;;25.50;62.00;;;;;;5000202;28;20026;-55
2023/08/25 08:10:17;;;;;;;8.60;4.47;;;25.50;61.90;;;;;;4997172;28;20431;-56
2023/08/25 08:12:44;;;;;;;5.20;4.03;;;25.50;62.60;;;;;;4999078;28;21492;-57
2023/08/25 08:15:11;;;;;;;6.00;3.88;;;25.50;62.00;;;;;;5003092;28;20421;-57
2023/08/25 08:17:36;;;;;;;5.22;4.15;;;25.50;61.50;;;;;;5002343;28;20202;-55
2023/08/25 08:20:07;;;;;;;6.28;4.57;;;25.50;61.50;;;;;;5003262;28;20041;-54
2023/08/25 08:22:32;;;;;;;8.02;3.90;;;25.50;61.60;;;;;;5003348;28;20030;-57
2023/08/25 08:24:58;;;;;;;5.60;3.85;;;25.50;61.30;;;;;;5001717;28;20034;-57
2023/08/25 08:27:25;;;;;;;6.15;4.00;;;25.50;61.50;;;;;;4996244;28;20050;-57
2023/08/25 08:29:51;;;;;;;4.78;3.72;;;25.50;61.70;;;;;;5004346;28;20123;-56
2023/08/25 08:32:17;;;;;;;8.50;4.47;;;25.50;62.00;;;;;;5002525;28;20401;-56
2023/08/25 08:34:43;;;;;;;5.63;4.20;;;25.50;62.20;;;;;;5002639;28;20030;-57
2023/08/25 08:37:09;;;;;;;6.88;4.10;;;25.50;62.00;;;;;;5003779;28;20037;-55
2023/08/25 08:39:37;;;;;;;6.90;4.03;;;25.50;61.80;;;;;;4998646;28;20025;-57
2023/08/25 08:42:03;;;;;;;6.43;4.50;;;25.50;61.10;;;;;;5000498;28;20029;-57
2023/08/25 08:44:36;;;;;;;5.68;4.47;;;25.50;60.80;;;;;;5000949;28;20485;-57
2023/08/25 08:47:03;;;;;;;6.95;4.15;;;25.50;60.60;;;;;;5000187;28;20040;-55
2023/08/25 08:49:30;;;;;;;7.00;4.32;;;25.50;60.50;;;;;;5001121;28;20390;-57
2023/08/25 08:51:58;;;;;;;7.50;4.32;;;25.50;60.10;;;;;;5005387;28;20034;-58
2023/08/25 08:54:27;;;;;;;8.73;4.35;;;25.50;59.80;;;;;;5006915;28;20087;-56
2023/08/25 08:56:53;;;;;;;9.90;4.53;;;25.40;59.60;;;;;;5006511;28;20537;-56
2023/08/25 08:59:19;;;;;;;6.20;4.32;;;25.50;59.70;;;;;;5003245;28;20026;-56
2023/08/25 09:01:45;;;;;;;6.68;4.18;;;25.40;59.90;;;;;;5013039;28;20044;-57
2023/08/25 09:04:11;;;;;;;9.80;4.82;;;25.40;60.10;;;;;;5008186;28;20455;-56
2023/08/25 09:06:39;;;;;;;7.30;4.28;;;25.40;60.40;;;;;;5000390;28;20384;-55
2023/08/25 09:09:08;;;;;;;6.00;4.22;;;25.40;60.70;;;;;;5006820;28;20026;-57
2023/08/25 09:11:35;;;;;;;8.10;3.90;;;25.40;61.10;;;;;;5006318;28;20033;-54
2023/08/25 09:14:04;;;;;;;7.63;5.10;;;25.40;61.40;;;;;;5009410;28;20113;-55
2023/08/25 09:16:33;;;;;;;7.30;4.63;;;25.40;61.80;;;;;;5008507;28;20429;-57
2023/08/25 09:19:03;;;;;;;6.82;4.18;;;25.40;61.90;;;;;;5010871;28;20026;-57
2023/08/25 09:21:30;;;;;;;6.70;4.67;;;25.40;60.90;;;;;;5000464;28;20394;-55
2023/08/25 09:23:58;;;;;;;6.68;4.35;;;25.40;60.80;;;;;;5000354;28;20034;-57
2023/08/25 09:26:24;;;;;;;3.80;3.22;;;25.40;60.40;;;;;;4998538;28;20472;-57
2023/08/25 09:28:54;;;;;;;5.93;3.22;;;25.40;60.00;;;;;;4997441;28;20026;-57
2023/08/25 09:31:31;;;;;;;4.50;3.03;;;25.40;59.50;;;;;;5000042;28;20087;-54
2023/08/25 09:34:04;;;;;;;4.97;3.25;;;25.40;59.30;;;;;;4998379;28;20030;-56
2023/08/25 09:36:30;;;;;;;7.60;3.28;;;25.40;59.20;;;;;;5001790;28;20026;-57
2023/08/25 09:38:56;;;;;;;3.88;3.28;;;25.40;59.50;;;;;;5003014;28;20449;-57
2023/08/25 09:41:26;;;;;;;4.30;3.20;;;25.40;59.10;;;;;;5001275;28;20037;-55
2023/08/25 09:43:59;;;;;;;4.30;3.27;;;25.40;59.20;;;;;;5002896;28;20046;-57
2023/08/25 09:46:29;;;;;;;8.45;3.55;;;25.40;59.50;;;;;;4998705;28;20576;-57
2023/08/25 09:49:05;;;;;;;5.63;3.22;;;25.50;60.20;;;;;;4990238;28;20105;-55
2023/08/25 09:51:41;;;;;;;3.97;3.40;;;25.50;60.40;;;;;;4996749;28;20700;-57
2023/08/25 09:54:08;;;;;;;4.63;3.30;;;25.50;60.50;;;;;;4996326;28;20108;-57
2023/08/25 09:56:35;;;;;;;7.13;3.70;;;25.50;60.80;;;;;;4993969;28;20118;-54
2023/08/25 09:59:03;;;;;;;4.72;3.20;;;25.50;60.60;;;;;;4988909;28;20031;-57
2023/08/25 10:01:29;;;;;;;7.80;3.40;;;25.50;60.70;;;;;;4992440;28;20084;-57
2023/08/25 10:03:56;;;;;;;4.88;3.22;;;25.60;60.40;;;;;;4997761;28;20095;-57
2023/08/25 10:06:22;;;;;;;4.78;3.40;;;25.50;60.30;;;;;;5001871;28;20026;-57
2023/08/25 10:08:48;;;;;;;5.32;3.33;;;25.60;60.10;;;;;;5000927;28;20421;-55
2023/08/25 10:11:16;;;;;;;3.08;2.78;;;25.60;60.00;;;;;;5003820;28;20030;-57
2023/08/25 10:13:44;;;;;;;5.25;3.20;;;25.60;60.20;;;;;;5001414;28;20025;-58
2023/08/25 10:16:11;;;;;;;4.63;3.50;;;25.60;60.60;;;;;;5002891;28;20036;-56
2023/08/25 10:18:42;;;;;;;4.50;3.15;;;25.60;61.00;;;;;;5001346;28;20030;-56
2023/08/25 10:21:09;;;;;;;4.68;3.25;;;25.60;60.90;;;;;;5002391;28;20116;-56
2023/08/25 10:23:36;;;;;;;4.35;3.65;;;25.60;60.90;;;;;;5002770;28;20022;-56
2023/08/25 10:26:03;;;;;;;4.32;3.10;;;25.60;60.00;;;;;;4999296;28;20065;-54
2023/08/25 10:28:30;;;;;;;3.00;2.70;;;25.60;59.70;;;;;;4999501;28;20034;-54
2023/08/25 10:30:56;;;;;;;5.70;3.20;;;25.60;59.40;;;;;;5002326;28;20026;-58
2023/08/25 10:33:22;;;;;;;4.03;2.85;;;25.60;59.20;;;;;;4999735;28;21590;-58
2023/08/25 10:35:48;;;;;;;3.97;2.75;;;25.60;59.20;;;;;;4990695;28;20796;-57
2023/08/25 10:38:35;;;;;;;3.53;2.97;;;25.60;58.80;;;;;;4996665;28;20026;-56
2023/08/25 10:41:14;;;;;;;3.53;2.60;;;25.70;59.10;;;;;;4994033;28;20032;-56
2023/08/25 10:43:45;;;;;;;3.10;2.78;;;25.60;59.00;;;;;;4993597;28;20030;-57
2023/08/25 10:46:11;;;;;;;5.15;2.75;;;25.60;58.90;;;;;;4993021;28;20128;-55
2023/08/25 10:48:38;;;;;;;3.85;2.60;;;25.70;59.10;;;;;;4994868;28;20033;-56
2023/08/25 10:51:11;;;;;;;3.15;2.33;;;25.60;59.30;;;;;;4998345;28;20045;-58
2023/08/25 10:53:44;;;;;;;3.72;2.85;;;25.60;59.00;;;;;;4993649;28;20032;-55
2023/08/25 10:56:22;;;;;;;3.80;2.90;;;25.70;58.90;;;;;;5002622;28;20241;-57
2023/08/25 10:59:11;;;;;;;3.17;2.88;;;25.70;59.10;;;;;;5000631;28;20124;-57
2023/08/25 11:01:37;;;;;;;4.75;3.03;;;25.70;59.30;;;;;;4999930;28;20448;-56
2023/08/25 11:04:06;;;;;;;4.55;3.03;;;25.70;59.50;;;;;;5004148;28;20112;-57
2023/08/25 11:06:52;;;;;;;3.77;2.93;;;25.70;59.40;;;;;;5004601;28;20063;-57
2023/08/25 11:09:20;;;;;;;4.38;3.13;;;25.70;59.30;;;;;;4999579;28;20042;-55
2023/08/25 11:11:47;;;;;;;4.75;3.20;;;25.70;59.20;;;;;;4993367;28;20014;-56
2023/08/25 11:14:16;;;;;;;6.45;3.55;;;25.70;59.40;;;;;;4993302;28;20034;-56
2023/08/25 11:16:42;;;;;;;4.15;3.00;;;25.70;59.10;;;;;;4991410;28;20018;-56
2023/08/25 11:19:11;;;;;;;4.60;2.92;;;25.70;59.20;;;;;;4999927;28;20026;-58
2023/08/25 11:21:37;;;;;;;4.07;2.70;;;25.70;59.20;;;;;;4999265;28;20026;-57
2023/08/25 11:24:03;;;;;;;4.38;2.85;;;25.70;59.00;;;;;;4996300;28;20468;-56
2023/08/25 11:26:30;;;;;;;4.13;2.92;;;25.70;59.10;;;;;;4998208;28;20038;-56
2023/08/25 11:28:56;;;;;;;3.53;2.72;;;25.80;58.70;;;;;;4996929;28;20102;-57
2023/08/25 11:31:23;;;;;;;2.95;2.50;;;25.80;58.70;;;;;;4999088;28;20026;-57
2023/08/25 11:33:51;;;;;;;6.07;2.60;;;25.80;58.70;;;;;;4994078;28;20123;-54
2023/08/25 11:36:17;;;;;;;4.32;2.75;;;25.80;58.90;;;;;;5001787;28;20127;-57
2023/08/25 11:38:48;;;;;;;5.45;2.85;;;25.80;58.90;;;;;;4997864;28;20030;-57
2023/08/25 11:41:14;;;;;;;3.33;2.90;;;25.80;59.00;;;;;;4998830;28;20045;-55
2023/08/25 11:43:40;;;;;;;4.03;3.08;;;25.80;59.20;;;;;;4994200;28;20473;-54
2023/08/25 11:46:06;;;;;;;3.50;2.90;;;25.80;59.40;;;;;;4998087;28;20033;-55
2023/08/25 11:48:35;;;;;;;4.45;3.33;;;25.80;59.80;;;;;;4998312;28;20025;-55
2023/08/25 11:51:01;;;;;;;5.22;2.90;;;25.90;59.70;;;;;;4998384;28;20038;-57
2023/08/25 11:53:27;;;;;;;4.18;3.20;;;25.90;59.70;;;;;;4996894;28;20048;-56
2023/08/25 11:56:04;;;;;;;3.85;2.70;;;25.90;59.50;;;;;;5005172;28;20029;-57
2023/08/25 11:58:31;;;;;;;4.82;3.13;;;25.90;59.60;;;;;;5001907;28;20510;-55
2023/08/25 12:01:05;;;;;;;2.75;2.35;;;25.90;59.90;;;;;;5001308;28;20686;-56
2023/08/25 12:03:30;;;;;;;4.15;3.17;;;25.90;59.90;;;;;;5000674;28;20417;-54
2023/08/25 12:05:56;;;;;;;3.33;3.03;;;25.90;59.90;;;;;;4996961;28;20108;-55
2023/08/25 12:08:24;;;;;;;4.63;3.30;;;25.90;59.90;;;;;;4995030;28;22134;-56
2023/08/25 12:10:53;;;;;;;3.55;2.78;;;25.90;59.80;;;;;;4995104;28;20545;-56
2023/08/25 12:13:32;;;;;;;4.03;3.00;;;25.90;59.70;;;;;;4992943;28;20494;-55
2023/08/25 12:15:58;;;;;;;4.45;3.13;;;25.90;59.80;;;;;;4995307;28;20041;-57
2023/08/25 12:18:33;;;;;;;4.35;3.42;;;25.90;59.50;;;;;;4992691;28;20474;-55
2023/08/25 12:20:59;;;;;;;4.68;3.15;;;25.90;59.80;;;;;;4991598;28;20026;-56
2023/08/25 12:23:30;;;;;;;4.97;3.10;;;25.90;59.90;;;;;;4998245;28;20026;-56
2023/08/25 12:25:56;;;;;;;7.00;3.22;;;25.90;59.80;;;;;;5007123;28;20426;-56
2023/08/25 12:28:22;;;;;;;4.93;3.20;;;25.90;59.90;;;;;;5003951;28;20030;-55
2023/08/25 12:30:47;;;;;;;6.57;2.85;;;25.90;59.70;;;;;;5009835;28;20030;-57
2023/08/25 12:33:14;;;;;;;3.70;3.20;;;25.90;59.70;;;;;;5006861;28;20057;-54
2023/08/25 12:35:40;;;;;;;4.47;3.03;;;25.90;59.50;;;;;;4996296;28;20441;-56
2023/08/25 12:38:05;;;;;;;3.25;2.75;;;25.90;59.50;;;;;;5001773;28;20026;-57
2023/08/25 12:40:31;;;;;;;3.40;2.70;;;25.90;59.60;;;;;;5007281;28;20091;-56
2023/08/25 12:42:57;;;;;;;4.13;2.90;;;25.90;59.70;;;;;;5011672;28;20064;-56
2023/08/25 12:45:24;;;;;;;3.20;2.90;;;25.90;60.00;;;;;;5011104;28;20419;-55